Miami, FL (33130)

6:48 PM EST on January 29, 2015 (GMT -0500)
Dilido Island | Change Station
CLOSE
Current Station
Personal Weather Station
Location: Miami Beach, FL
Elevation: 30 ft
Nearby Weather Stations

Elev 30 ft 25.79 °N, 80.16 °W | Updated 9 minutes ago

Partly Cloudy
Partly Cloudy
66.8 °F
Feels Like 66.8 °F
N
0.0
Wind Variable Wind from WNW

Today
High -- | Low -- °F
--% Chance of Precip.
Yesterday
High -- | Low -- °F
Precip. -- in
7:05 AM 6:02 PM
Waxing Gibbous, 78% visible
Pressure 30.21 in
Visibility 10.0 miles
Clouds Scattered Clouds 4800 ft
Dew Point 54 °F
Humidity 63%
Rainfall 0.00 in
Snow Depth Not available.
UV 0 out of 12
Pollen 7.20 out of 12
Air Quality Not available.
Flu Activity Not available.
METAR KMIA 292253Z 07007KT 10SM SCT048 21/11 A3021 RMK AO2 SLP229 T02060106

More Conditions Fewer Conditions

Pressure 30.21 in
Visibility 10.0 miles
Clouds Scattered Clouds 4800 ft
Dew Point 54 °F
Humidity 63%
Rainfall 0.00 in
Snow Depth Not available.
UV 0 out of 12
Pollen 7.20 out of 12
Air Quality Not available.
Flu Activity Not available.
METAR KMIA 292253Z 07007KT 10SM SCT048 21/11 A3021 RMK AO2 SLP229 T02060106

More Conditions Fewer Conditions

10-Day Weather Forecast

Almanac

Astronomy

Jan. 29, 2015 Rise Set
Actual Time
Civil Twilight
Nautical Twilight
Astronomical Twilight
Moon
Length of Visible Light
Length of Day
Tomorrow will be .
, % of the Moon is Illuminated

Today's Extremes

State Highs State Lows

Community

WunderPhotos

Upload Photos

1,791,643 photos uploaded!

WunderBlogs® & News

Nearby

Air Quality

  Air Quality AQ Index Pollutant
Not available.

Snow Depth

Station Depth Elevation

Earthquake Activity

City Distance Mag. Time & Date
Minimum magnitude displayed is 2.5.

Coastal Water Temperatures

Place Temperature

Nearby Weather Stations